Time;durP1;ratioP1;P1;durP2;ratioP2;P2;SDS_P1;SDS_P2;PMS_P1;PMS_P2;Temp;Humidity;BMP_temperature;BMP_pressure;BME280_temperature;BME280_humidity;BME280_pressure;Samples;Min_cycle;Max_cycle;Signal;HPM_P1;HPM_P2
2022/10/17 00:01:22;;;;;;;16.02;5.55;;;10.60;99.90;;;;;;5109079;28;20111;-77
2022/10/17 00:03:47;;;;;;;14.63;5.03;;;10.60;99.90;;;;;;5082468;28;20124;-77
2022/10/17 00:06:14;;;;;;;14.82;5.40;;;10.70;99.90;;;;;;5086647;28;20470;-76
2022/10/17 00:08:41;;;;;;;13.20;5.00;;;10.80;99.90;;;;;;5084638;27;20398;-76
2022/10/17 00:11:19;;;;;;;15.65;4.95;;;10.70;99.90;;;;;;5086708;28;20043;-76
2022/10/17 00:13:47;;;;;;;14.45;5.30;;;10.70;99.90;;;;;;5101667;28;20490;-77
2022/10/17 00:16:13;;;;;;;14.13;5.82;;;10.80;99.90;;;;;;5090820;28;20441;-76
2022/10/17 00:18:39;;;;;;;17.55;5.32;;;10.90;99.90;;;;;;5098479;28;20048;-79
2022/10/17 00:21:05;;;;;;;13.15;5.45;;;10.90;99.90;;;;;;5092403;28;20118;-79
2022/10/17 00:23:32;;;;;;;12.90;5.25;;;11.00;99.90;;;;;;5085141;28;20036;-79
2022/10/17 00:26:04;;;;;;;15.02;5.30;;;11.00;99.90;;;;;;5106578;28;20071;-76
2022/10/17 00:28:30;;;;;;;21.17;5.38;;;11.10;99.90;;;;;;5122191;27;20036;-76
2022/10/17 00:31:02;;;;;;;15.05;5.53;;;11.10;99.90;;;;;;5091321;27;20441;-78
2022/10/17 00:33:28;;;;;;;16.48;5.40;;;11.30;99.90;;;;;;5091034;28;20367;-82
2022/10/17 00:36:15;;;;;;;11.48;5.05;;;11.20;99.90;;;;;;5092228;27;20073;-78
2022/10/17 00:38:42;;;;;;;12.88;5.18;;;11.20;99.90;;;;;;5094943;28;20040;-76
2022/10/17 00:41:09;;;;;;;14.15;4.85;;;11.30;99.90;;;;;;5117047;27;20478;-76
2022/10/17 00:43:49;;;;;;;13.30;5.55;;;11.40;99.90;;;;;;5086227;28;20093;-77
2022/10/17 00:46:15;;;;;;;17.33;6.05;;;11.40;99.90;;;;;;5092313;28;20394;-76
2022/10/17 00:48:42;;;;;;;13.70;5.85;;;11.40;99.90;;;;;;5096109;28;20055;-76
2022/10/17 00:51:08;;;;;;;18.17;5.50;;;11.50;99.90;;;;;;5090395;28;20378;-76
2022/10/17 00:53:35;;;;;;;13.07;5.63;;;11.60;99.90;;;;;;5090421;28;20043;-76
2022/10/17 00:56:01;;;;;;;13.10;5.63;;;11.60;99.90;;;;;;5089077;28;20039;-76
2022/10/17 00:58:27;;;;;;;14.15;6.30;;;11.70;99.90;;;;;;5072990;28;20046;-76
2022/10/17 01:00:53;;;;;;;17.98;6.82;;;11.80;99.90;;;;;;5123856;27;20484;-76
2022/10/17 01:03:18;;;;;;;17.40;6.10;;;11.80;99.90;;;;;;5091099;28;20096;-76
2022/10/17 01:05:45;;;;;;;15.50;6.13;;;11.90;99.90;;;;;;5081732;28;20058;-76
2022/10/17 01:08:11;;;;;;;12.73;6.00;;;11.90;99.90;;;;;;5089780;28;20039;-76
2022/10/17 01:11:01;;;;;;;15.13;5.72;;;12.00;99.90;;;;;;5062959;28;20558;-76
2022/10/17 01:13:35;;;;;;;18.63;5.68;;;12.00;99.90;;;;;;5112105;28;20046;-77
2022/10/17 01:16:26;;;;;;;14.60;6.10;;;12.10;99.90;;;;;;5093341;28;20039;-76
2022/10/17 01:19:31;;;;;;;12.60;5.55;;;12.10;99.90;;;;;;5079651;28;20405;-77
2022/10/17 01:22:27;;;;;;;15.05;6.00;;;12.10;99.90;;;;;;5090280;28;20148;-82
2022/10/17 01:25:02;;;;;;;10.98;6.07;;;12.10;99.90;;;;;;5090470;28;20040;-75
2022/10/17 01:27:52;;;;;;;10.10;5.03;;;12.10;99.90;;;;;;5087354;28;20043;-76
2022/10/17 01:30:42;;;;;;;10.35;5.47;;;12.20;99.90;;;;;;5118981;28;20043;-77
2022/10/17 01:33:42;;;;;;;14.40;5.50;;;12.20;99.90;;;;;;5115504;28;20123;-78
2022/10/17 01:36:14;;;;;;;11.50;5.50;;;12.20;99.90;;;;;;5089469;28;20040;-79
2022/10/17 01:38:51;;;;;;;14.07;5.50;;;12.30;99.90;;;;;;5081933;28;20047;-79
2022/10/17 01:41:46;;;;;;;12.82;5.63;;;12.30;99.90;;;;;;5087487;28;20039;-76
2022/10/17 01:44:18;;;;;;;10.07;5.95;;;12.30;99.90;;;;;;5070914;28;20100;-78
2022/10/17 01:46:50;;;;;;;10.13;5.20;;;12.30;99.90;;;;;;5090770;28;20060;-76
2022/10/17 01:49:21;;;;;;;15.23;5.72;;;12.20;99.90;;;;;;5068162;28;20059;-79
2022/10/17 01:51:56;;;;;;;14.75;6.28;;;12.20;99.90;;;;;;5094432;28;20054;-76
2022/10/17 01:54:47;;;;;;;14.13;5.93;;;12.10;99.90;;;;;;5086503;28;20047;-76
2022/10/17 01:57:37;;;;;;;10.20;6.65;;;12.10;99.90;;;;;;5075364;28;20427;-76
2022/10/17 02:00:07;;;;;;;9.63;5.95;;;12.10;99.90;;;;;;5111368;27;20044;-76
2022/10/17 02:02:34;;;;;;;14.27;6.10;;;12.00;99.90;;;;;;5090152;28;20094;-78
2022/10/17 02:05:01;;;;;;;9.38;6.07;;;12.00;99.90;;;;;;5083972;27;20126;-76
2022/10/17 02:07:27;;;;;;;12.63;7.13;;;11.90;99.90;;;;;;5098235;27;20048;-76
2022/10/17 02:09:52;;;;;;;13.00;6.90;;;11.80;99.90;;;;;;5090871;28;20106;-76
2022/10/17 02:12:43;;;;;;;9.05;6.93;;;11.90;99.90;;;;;;5107287;27;20050;-77
2022/10/17 02:15:36;;;;;;;13.68;7.18;;;11.90;99.90;;;;;;5120142;27;20509;-77
2022/10/17 02:18:37;;;;;;;11.80;7.50;;;11.90;99.90;;;;;;5090047;28;20478;-76
2022/10/17 02:21:10;;;;;;;13.30;7.65;;;11.80;99.90;;;;;;5090837;28;20136;-77
2022/10/17 02:23:41;;;;;;;10.88;7.88;;;11.80;99.90;;;;;;5119304;27;20048;-76
2022/10/17 02:26:18;;;;;;;12.65;8.45;;;11.80;99.90;;;;;;5093326;28;20100;-78
2022/10/17 02:28:57;;;;;;;11.32;8.45;;;11.80;99.90;;;;;;5092567;28;20047;-80
2022/10/17 02:31:33;;;;;;;16.10;8.65;;;11.80;99.90;;;;;;5121355;27;20036;-76
2022/10/17 02:34:03;;;;;;;12.85;9.00;;;11.70;99.90;;;;;;5091945;28;20036;-76
2022/10/17 02:36:37;;;;;;;12.25;8.73;;;11.70;99.90;;;;;;5098882;28;20044;-77
2022/10/17 02:39:05;;;;;;;15.57;8.43;;;11.70;99.90;;;;;;5084989;27;20039;-77
2022/10/17 02:41:31;;;;;;;14.32;9.68;;;11.70;99.90;;;;;;5098284;28;20040;-76
2022/10/17 02:43:57;;;;;;;12.32;9.05;;;11.70;99.90;;;;;;5090501;28;20040;-76
2022/10/17 02:46:26;;;;;;;10.70;8.32;;;11.70;99.90;;;;;;5087172;28;20059;-76
2022/10/17 02:48:54;;;;;;;18.30;8.98;;;11.70;99.90;;;;;;5084091;28;20062;-76
2022/10/17 02:51:28;;;;;;;15.93;10.75;;;11.60;99.90;;;;;;5071645;28;20036;-76
2022/10/17 02:54:06;;;;;;;15.38;9.90;;;11.60;99.90;;;;;;5083171;28;20068;-76
2022/10/17 02:56:41;;;;;;;14.43;10.02;;;11.60;99.90;;;;;;5082589;28;20040;-77
2022/10/17 02:59:11;;;;;;;17.73;10.23;;;11.60;99.90;;;;;;5085090;28;20139;-77
2022/10/17 03:01:37;;;;;;;14.32;10.25;;;11.60;99.90;;;;;;5093923;28;20036;-79
2022/10/17 03:04:11;;;;;;;19.85;11.95;;;11.60;99.90;;;;;;5054000;28;20509;-77
2022/10/17 03:06:38;;;;;;;13.18;11.15;;;11.70;99.90;;;;;;5115470;27;20130;-77
2022/10/17 03:09:04;;;;;;;20.38;11.88;;;11.70;99.90;;;;;;5094644;27;20132;-76
2022/10/17 03:11:30;;;;;;;16.85;12.35;;;11.70;99.90;;;;;;5096530;28;20051;-76
2022/10/17 03:13:55;;;;;;;14.57;11.07;;;11.70;99.90;;;;;;5108070;28;20043;-77
2022/10/17 03:16:21;;;;;;;15.40;12.18;;;11.70;99.90;;;;;;5093421;28;20043;-76
2022/10/17 03:18:47;;;;;;;16.63;12.20;;;11.70;99.90;;;;;;5121373;27;20065;-77
2022/10/17 03:21:12;;;;;;;17.35;12.52;;;11.80;99.90;;;;;;5127546;27;20061;-77
2022/10/17 03:23:38;;;;;;;17.92;12.30;;;11.80;99.90;;;;;;5089981;28;20257;-77
2022/10/17 03:26:05;;;;;;;15.05;11.90;;;11.80;99.90;;;;;;5116490;27;20530;-76
2022/10/17 03:28:31;;;;;;;15.18;12.07;;;11.80;99.90;;;;;;5087566;28;20394;-79
2022/10/17 03:30:57;;;;;;;16.45;12.35;;;11.80;99.90;;;;;;5094514;28;20043;-77
2022/10/17 03:33:22;;;;;;;18.38;13.77;;;11.80;99.90;;;;;;5091772;27;20110;-77
2022/10/17 03:35:48;;;;;;;19.38;14.48;;;11.80;99.90;;;;;;5076344;27;20059;-77
2022/10/17 03:38:14;;;;;;;23.33;13.70;;;11.90;99.90;;;;;;5081460;27;20147;-75
2022/10/17 03:40:39;;;;;;;18.95;13.85;;;11.90;99.90;;;;;;5090591;28;20686;-77
2022/10/17 03:43:05;;;;;;;20.45;13.95;;;11.90;99.90;;;;;;5101192;28;20114;-78
2022/10/17 03:45:31;;;;;;;17.98;13.52;;;11.80;99.90;;;;;;5076028;28;20583;-77
2022/10/17 03:47:58;;;;;;;20.00;15.27;;;11.90;99.90;;;;;;5092407;28;20571;-80
2022/10/17 03:50:24;;;;;;;19.77;14.45;;;11.90;99.90;;;;;;5075830;28;20074;-76
2022/10/17 03:52:49;;;;;;;17.98;13.93;;;11.90;99.90;;;;;;5057500;27;20122;-76
2022/10/17 03:55:16;;;;;;;19.85;14.18;;;11.90;99.90;;;;;;5092746;28;20453;-78
2022/10/17 03:57:42;;;;;;;19.95;14.60;;;12.00;99.90;;;;;;5093353;28;20385;-79
2022/10/17 04:00:08;;;;;;;19.58;15.60;;;12.00;99.90;;;;;;5091982;27;20047;-77
2022/10/17 04:02:34;;;;;;;17.92;14.70;;;12.10;99.90;;;;;;5098885;28;20036;-76
2022/10/17 04:05:00;;;;;;;23.33;15.35;;;12.20;99.90;;;;;;5110280;27;20047;-77
2022/10/17 04:07:26;;;;;;;21.48;15.25;;;12.20;99.90;;;;;;5100639;28;20036;-77
2022/10/17 04:09:52;;;;;;;20.23;14.70;;;12.30;99.90;;;;;;5096969;28;20371;-78
2022/10/17 04:12:18;;;;;;;20.65;15.65;;;12.40;99.90;;;;;;5086275;28;20048;-78
2022/10/17 04:14:44;;;;;;;22.15;15.95;;;12.30;99.90;;;;;;5092786;28;20043;-77
2022/10/17 04:17:09;;;;;;;23.88;15.85;;;12.30;99.90;;;;;;5086756;27;20473;-76
2022/10/17 04:19:35;;;;;;;22.73;16.27;;;12.40;99.90;;;;;;5090736;27;20051;-77
2022/10/17 04:22:02;;;;;;;22.70;17.23;;;12.40;99.90;;;;;;5092614;28;20139;-82
2022/10/17 04:24:28;;;;;;;20.45;16.55;;;12.50;99.90;;;;;;5095229;28;20061;-77
2022/10/17 04:26:54;;;;;;;21.65;15.82;;;12.50;99.90;;;;;;5063981;28;20040;-76
2022/10/17 04:29:20;;;;;;;24.20;17.00;;;12.50;99.90;;;;;;5094014;27;20638;-76
2022/10/17 04:31:46;;;;;;;22.45;16.52;;;12.50;99.90;;;;;;5089228;27;20084;-76
2022/10/17 04:34:13;;;;;;;21.63;17.05;;;12.60;99.90;;;;;;5089248;28;20052;-77
2022/10/17 04:36:39;;;;;;;24.42;17.55;;;12.60;99.90;;;;;;5092629;28;20051;-77
2022/10/17 04:39:04;;;;;;;24.25;17.45;;;12.60;99.90;;;;;;5098169;27;20039;-76
2022/10/17 04:41:30;;;;;;;25.48;18.15;;;12.60;99.90;;;;;;5076057;28;20481;-77
2022/10/17 04:43:56;;;;;;;25.13;18.13;;;12.70;99.90;;;;;;5067594;27;20028;-78
2022/10/17 04:46:22;;;;;;;24.75;17.65;;;12.70;99.90;;;;;;5085371;27;20055;-78
2022/10/17 04:48:48;;;;;;;23.85;17.10;;;12.80;99.90;;;;;;5083275;28;20156;-78
2022/10/17 04:51:16;;;;;;;24.00;18.10;;;12.80;99.90;;;;;;5106679;28;20067;-78
2022/10/17 04:53:43;;;;;;;22.48;17.73;;;12.80;99.90;;;;;;5064787;28;20105;-77
2022/10/17 04:56:14;;;;;;;27.70;18.23;;;12.90;99.90;;;;;;5107433;28;20040;-77
2022/10/17 04:58:41;;;;;;;24.98;18.17;;;12.90;99.90;;;;;;5116434;27;20457;-80
2022/10/17 05:01:09;;;;;;;24.65;17.98;;;12.90;99.90;;;;;;5084532;27;20059;-83
2022/10/17 05:03:35;;;;;;;22.67;17.77;;;13.00;99.90;;;;;;5091666;28;20032;-77
2022/10/17 05:06:12;;;;;;;29.17;19.15;;;12.90;99.90;;;;;;5083594;28;20040;-78
2022/10/17 05:08:38;;;;;;;24.08;18.20;;;12.90;99.90;;;;;;5092503;28;20066;-78
2022/10/17 05:11:04;;;;;;;30.98;19.13;;;12.90;99.90;;;;;;5108170;28;20035;-77
2022/10/17 05:13:31;;;;;;;24.65;17.90;;;12.80;99.90;;;;;;5099311;28;20059;-79
2022/10/17 05:16:00;;;;;;;24.88;19.88;;;12.90;99.90;;;;;;5070331;28;20043;-79
2022/10/17 05:18:27;;;;;;;26.75;18.40;;;12.90;99.90;;;;;;5086269;28;20060;-77
2022/10/17 05:20:53;;;;;;;27.73;19.42;;;12.90;99.90;;;;;;5087149;28;20040;-78
2022/10/17 05:23:18;;;;;;;24.35;18.05;;;13.00;99.90;;;;;;5073385;28;20054;-79
2022/10/17 05:25:44;;;;;;;24.90;18.70;;;13.00;99.90;;;;;;5084700;28;20048;-79
2022/10/17 05:28:10;;;;;;;25.73;18.67;;;13.10;99.90;;;;;;5090794;28;20040;-81
2022/10/17 05:30:35;;;;;;;28.55;18.58;;;13.10;99.90;;;;;;5079088;28;20048;-77
2022/10/17 05:33:02;;;;;;;26.65;18.73;;;13.10;99.90;;;;;;5092170;28;20036;-76
2022/10/17 05:35:28;;;;;;;27.75;18.20;;;13.10;99.90;;;;;;5105000;28;20079;-77
2022/10/17 05:37:53;;;;;;;31.13;19.27;;;13.10;99.90;;;;;;5109150;28;20093;-77
2022/10/17 05:40:19;;;;;;;31.90;20.10;;;13.10;99.90;;;;;;5095384;27;20044;-77
2022/10/17 05:42:46;;;;;;;28.92;18.90;;;13.10;99.90;;;;;;5082976;27;20390;-76
2022/10/17 05:45:12;;;;;;;23.88;18.85;;;13.10;99.90;;;;;;5081242;28;20367;-81
2022/10/17 05:47:39;;;;;;;24.77;19.42;;;13.10;99.90;;;;;;5084134;28;20052;-77
2022/10/17 05:50:06;;;;;;;32.80;20.83;;;13.10;99.90;;;;;;5089846;28;20369;-77
2022/10/17 05:52:31;;;;;;;29.30;19.45;;;13.10;99.90;;;;;;5090016;28;20494;-78
2022/10/17 05:54:57;;;;;;;30.23;20.45;;;13.10;99.90;;;;;;5062074;28;20058;-76
2022/10/17 05:57:26;;;;;;;25.73;20.33;;;13.10;99.90;;;;;;5077912;28;20075;-77
2022/10/17 05:59:51;;;;;;;30.38;20.42;;;13.10;99.90;;;;;;5112241;28;20038;-77
2022/10/17 06:02:17;;;;;;;28.08;19.73;;;13.10;99.90;;;;;;5095108;28;20047;-77
2022/10/17 06:04:44;;;;;;;30.00;21.08;;;13.20;99.90;;;;;;5095119;28;20036;-77
2022/10/17 06:07:11;;;;;;;31.30;19.95;;;13.20;99.90;;;;;;5104961;28;20486;-77
2022/10/17 06:09:37;;;;;;;29.60;20.88;;;13.20;99.90;;;;;;5094388;28;20044;-77
2022/10/17 06:12:03;;;;;;;28.48;20.35;;;13.20;99.90;;;;;;5095033;28;20043;-77
2022/10/17 06:14:29;;;;;;;30.45;20.33;;;13.30;99.90;;;;;;5128512;27;20043;-77
2022/10/17 06:16:55;;;;;;;29.65;20.05;;;13.30;99.90;;;;;;5095187;28;20051;-77
2022/10/17 06:19:20;;;;;;;31.67;20.90;;;13.40;99.90;;;;;;5094398;28;20047;-77
2022/10/17 06:21:46;;;;;;;30.27;20.58;;;13.40;99.90;;;;;;5095240;28;20055;-76
2022/10/17 06:24:12;;;;;;;34.03;20.92;;;13.50;99.90;;;;;;5111912;28;20051;-78
2022/10/17 06:26:38;;;;;;;25.23;20.17;;;13.60;99.90;;;;;;5094574;28;20560;-77
2022/10/17 06:29:03;;;;;;;29.98;19.65;;;13.60;99.90;;;;;;5094526;28;20074;-77
2022/10/17 06:31:29;;;;;;;31.63;20.52;;;13.70;99.90;;;;;;5094413;28;20051;-77
2022/10/17 06:33:55;;;;;;;30.15;20.60;;;13.70;99.90;;;;;;5094520;28;20071;-76
2022/10/17 06:36:21;;;;;;;28.38;19.83;;;13.80;99.90;;;;;;5077400;28;20040;-78
2022/10/17 06:38:46;;;;;;;31.05;20.35;;;13.90;99.90;;;;;;5111223;28;20031;-78
2022/10/17 06:41:13;;;;;;;27.75;19.27;;;14.00;99.90;;;;;;5095048;28;20126;-78
2022/10/17 06:43:45;;;;;;;25.60;18.90;;;14.00;99.90;;;;;;5094730;28;20047;-77
2022/10/17 06:46:12;;;;;;;28.15;19.73;;;14.00;99.90;;;;;;5095109;28;20056;-78
2022/10/17 06:48:37;;;;;;;24.38;19.33;;;14.10;99.90;;;;;;5094402;28;20513;-77
2022/10/17 06:51:05;;;;;;;24.63;19.25;;;14.10;99.90;;;;;;5076897;28;20031;-77
2022/10/17 06:53:33;;;;;;;23.67;17.67;;;14.20;99.90;;;;;;5077335;28;20081;-78
2022/10/17 06:56:03;;;;;;;24.42;17.98;;;14.30;99.90;;;;;;5094412;28;20044;-77
2022/10/17 06:58:39;;;;;;;24.50;18.10;;;14.30;99.90;;;;;;5094106;28;20043;-77
2022/10/17 07:01:12;;;;;;;27.17;17.02;;;14.40;99.90;;;;;;5111379;28;20490;-77
2022/10/17 07:03:39;;;;;;;24.52;16.10;;;14.40;99.90;;;;;;5094258;28;20043;-77
2022/10/17 07:06:05;;;;;;;21.23;15.82;;;14.50;99.90;;;;;;5105065;28;20196;-78
2022/10/17 07:08:31;;;;;;;22.77;17.15;;;14.50;99.90;;;;;;5111079;28;20123;-77
2022/10/17 07:10:57;;;;;;;20.10;15.52;;;14.60;99.90;;;;;;5077151;28;20048;-78
2022/10/17 07:13:24;;;;;;;21.13;16.00;;;14.70;99.90;;;;;;5093787;28;20411;-82
2022/10/17 07:15:49;;;;;;;19.40;15.02;;;14.80;99.90;;;;;;5093936;28;20122;-77
2022/10/17 07:18:15;;;;;;;20.15;15.18;;;14.90;99.90;;;;;;5093946;28;20126;-77
2022/10/17 07:20:41;;;;;;;28.63;15.18;;;14.90;99.90;;;;;;5092827;28;20036;-77
2022/10/17 07:23:06;;;;;;;19.08;14.43;;;15.10;99.90;;;;;;5111167;28;20054;-78
2022/10/17 07:25:32;;;;;;;19.67;13.95;;;15.10;99.90;;;;;;5093263;28;20047;-77
2022/10/17 07:27:58;;;;;;;24.23;14.68;;;15.20;99.90;;;;;;5110886;28;20069;-77
2022/10/17 07:30:23;;;;;;;19.00;14.25;;;15.30;99.90;;;;;;5093843;28;20483;-77
2022/10/17 07:32:53;;;;;;;19.10;14.05;;;15.40;99.90;;;;;;5093466;28;20393;-77
2022/10/17 07:35:20;;;;;;;18.75;13.48;;;15.40;99.90;;;;;;5093278;28;20102;-78
2022/10/17 07:37:46;;;;;;;17.67;13.45;;;15.50;99.90;;;;;;5110493;28;20144;-77
2022/10/17 07:40:11;;;;;;;19.42;13.77;;;15.50;99.90;;;;;;5093288;28;20055;-77
2022/10/17 07:42:38;;;;;;;17.25;13.38;;;15.50;99.90;;;;;;5111451;28;20056;-77
2022/10/17 07:45:04;;;;;;;19.17;13.35;;;15.60;99.90;;;;;;5093429;28;20031;-77
2022/10/17 07:47:30;;;;;;;16.88;12.85;;;15.70;99.90;;;;;;5093126;28;20114;-76
2022/10/17 07:49:56;;;;;;;17.10;12.45;;;15.70;99.90;;;;;;5092947;28;20045;-76
2022/10/17 07:52:22;;;;;;;15.85;12.85;;;15.90;99.90;;;;;;5092721;28;20065;-77
2022/10/17 07:54:48;;;;;;;19.98;13.27;;;15.90;99.90;;;;;;5091755;28;20035;-76
2022/10/17 07:57:13;;;;;;;16.38;12.32;;;15.90;99.90;;;;;;5093203;28;20062;-76
2022/10/17 07:59:39;;;;;;;16.63;12.85;;;15.80;99.90;;;;;;5092262;28;20042;-76
2022/10/17 08:02:07;;;;;;;17.67;12.07;;;15.80;99.90;;;;;;5109834;28;20051;-76
2022/10/17 08:04:33;;;;;;;15.50;12.27;;;15.90;99.90;;;;;;5092352;28;20494;-76
2022/10/17 08:06:59;;;;;;;15.13;12.07;;;15.90;99.90;;;;;;5104220;28;20039;-76
2022/10/17 08:09:25;;;;;;;15.90;12.57;;;16.00;99.90;;;;;;5092568;28;20047;-78
2022/10/17 08:11:51;;;;;;;16.67;11.65;;;16.20;99.90;;;;;;5092558;28;20049;-76
2022/10/17 08:14:17;;;;;;;14.10;11.57;;;16.30;99.90;;;;;;5109533;28;20050;-77
2022/10/17 08:16:42;;;;;;;16.20;12.13;;;16.40;99.90;;;;;;5075548;28;20054;-76
2022/10/17 08:19:10;;;;;;;13.73;10.38;;;16.50;99.90;;;;;;5092341;28;20517;-76
2022/10/17 08:21:36;;;;;;;16.58;11.30;;;16.60;99.90;;;;;;5109766;28;20039;-77
2022/10/17 08:24:02;;;;;;;14.30;10.20;;;16.80;99.90;;;;;;5095415;28;20122;-78
2022/10/17 08:26:28;;;;;;;14.57;10.65;;;16.80;99.90;;;;;;5082040;28;20523;-77
2022/10/17 08:28:54;;;;;;;13.20;10.50;;;16.90;99.90;;;;;;5097961;28;20062;-76
2022/10/17 08:31:20;;;;;;;16.58;11.05;;;17.00;99.90;;;;;;5098384;28;20126;-76
2022/10/17 08:33:47;;;;;;;14.07;10.30;;;17.00;99.90;;;;;;5114094;28;20509;-76
2022/10/17 08:36:16;;;;;;;13.07;10.27;;;17.00;99.90;;;;;;5076470;28;20392;-76
2022/10/17 08:38:42;;;;;;;13.85;9.75;;;17.00;99.90;;;;;;5092355;28;20109;-75
2022/10/17 08:41:33;;;;;;;14.50;10.00;;;17.00;99.90;;;;;;5092869;28;20043;-76
2022/10/17 08:44:01;;;;;;;14.50;10.38;;;17.00;99.90;;;;;;5088281;28;20705;-75
2022/10/17 08:46:37;;;;;;;12.27;9.30;;;17.00;99.90;;;;;;5086199;28;20155;-77
2022/10/17 08:49:08;;;;;;;12.05;9.18;;;16.90;99.90;;;;;;5092397;28;20052;-76
2022/10/17 08:51:38;;;;;;;13.10;10.00;;;16.90;99.90;;;;;;5075160;28;20035;-75
2022/10/17 08:54:25;;;;;;;13.52;9.23;;;16.90;99.90;;;;;;5109420;28;20085;-75
2022/10/17 08:56:54;;;;;;;13.63;9.30;;;17.00;99.90;;;;;;5091431;28;20047;-76
2022/10/17 08:59:27;;;;;;;16.33;9.20;;;17.00;99.90;;;;;;5091832;28;20477;-76
2022/10/17 09:02:02;;;;;;;14.18;9.60;;;17.10;99.90;;;;;;5125653;27;20055;-76
2022/10/17 09:05:06;;;;;;;11.60;9.18;;;17.10;99.90;;;;;;5091102;28;20172;-75
2022/10/17 09:07:35;;;;;;;12.30;9.20;;;17.10;99.90;;;;;;5098454;28;20111;-76
2022/10/17 09:10:37;;;;;;;12.70;9.13;;;17.10;99.90;;;;;;5095736;28;20043;-76
2022/10/17 09:13:34;;;;;;;12.55;8.85;;;17.10;99.90;;;;;;5067725;28;20047;-75
2022/10/17 09:16:06;;;;;;;10.60;8.25;;;17.10;99.90;;;;;;5091369;28;20114;-77
2022/10/17 09:18:54;;;;;;;11.45;8.60;;;17.10;99.90;;;;;;5126034;27;20127;-77
2022/10/17 09:21:29;;;;;;;17.65;8.73;;;17.10;99.90;;;;;;5077558;28;20079;-77
2022/10/17 09:24:01;;;;;;;13.63;9.00;;;17.10;99.90;;;;;;5109078;28;20850;-75
2022/10/17 09:26:27;;;;;;;13.45;9.23;;;17.10;99.90;;;;;;5092036;28;20043;-77
2022/10/17 09:28:58;;;;;;;13.18;8.95;;;17.10;99.90;;;;;;5091081;28;20075;-76
2022/10/17 09:31:25;;;;;;;14.48;8.48;;;17.20;99.90;;;;;;5109914;28;20052;-75
2022/10/17 09:33:54;;;;;;;11.40;8.35;;;17.20;99.90;;;;;;5108197;28;20044;-76
2022/10/17 09:36:24;;;;;;;11.35;8.23;;;17.20;99.90;;;;;;5091704;28;20043;-77
2022/10/17 09:38:56;;;;;;;12.95;8.07;;;17.30;99.90;;;;;;5091196;28;20048;-79
2022/10/17 09:41:43;;;;;;;10.48;8.95;;;17.20;99.90;;;;;;5108860;28;20051;-77
2022/10/17 09:44:34;;;;;;;12.32;9.23;;;17.10;99.90;;;;;;5076430;28;20113;-77
2022/10/17 09:47:08;;;;;;;12.98;8.90;;;16.90;99.90;;;;;;5065173;28;20039;-77
2022/10/17 09:49:46;;;;;;;11.60;8.77;;;16.80;99.90;;;;;;5091608;28;20058;-77
2022/10/17 09:52:19;;;;;;;12.27;8.48;;;16.80;99.90;;;;;;5079892;28;20050;-77
2022/10/17 09:54:51;;;;;;;11.25;8.95;;;16.70;99.90;;;;;;5090997;28;20040;-82
2022/10/17 09:57:18;;;;;;;15.07;9.70;;;16.70;99.90;;;;;;5091415;28;20050;-77
2022/10/17 09:59:54;;;;;;;14.68;9.95;;;16.60;99.90;;;;;;5090902;28;20039;-81
2022/10/17 10:02:22;;;;;;;17.30;10.27;;;16.60;99.90;;;;;;5091860;28;20063;-78
2022/10/17 10:05:01;;;;;;;17.33;11.25;;;16.50;99.90;;;;;;5073857;28;20054;-77
2022/10/17 10:07:33;;;;;;;16.70;11.88;;;16.40;99.90;;;;;;5098691;28;20047;-77
2022/10/17 10:10:00;;;;;;;21.52;13.10;;;16.40;99.90;;;;;;5075010;28;20595;-77
2022/10/17 10:12:32;;;;;;;15.70;11.85;;;16.30;99.90;;;;;;5119530;27;20390;-77
2022/10/17 10:14:58;;;;;;;17.33;11.85;;;16.20;99.90;;;;;;5091437;28;20051;-77
2022/10/17 10:17:40;;;;;;;17.35;12.77;;;16.20;99.90;;;;;;5091487;28;20047;-77
2022/10/17 10:20:30;;;;;;;22.25;14.40;;;16.20;99.90;;;;;;5107749;28;20066;-78
2022/10/17 10:23:17;;;;;;;21.30;14.60;;;16.20;99.90;;;;;;5090721;28;20099;-78
2022/10/17 10:26:04;;;;;;;21.60;14.77;;;16.20;99.90;;;;;;5076314;28;20036;-77
2022/10/17 10:28:34;;;;;;;20.63;13.52;;;16.20;99.90;;;;;;5077814;28;20051;-78
2022/10/17 10:31:03;;;;;;;23.65;15.18;;;16.20;99.90;;;;;;5126794;27;20040;-77
2022/10/17 10:33:32;;;;;;;25.38;16.30;;;16.20;99.90;;;;;;5094862;28;20130;-77
2022/10/17 10:36:00;;;;;;;22.02;16.02;;;16.20;99.90;;;;;;5075576;28;20117;-78
2022/10/17 10:38:27;;;;;;;24.88;15.80;;;16.20;99.90;;;;;;5073174;28;20047;-78
2022/10/17 10:41:04;;;;;;;28.77;18.67;;;16.20;99.90;;;;;;5094263;28;20551;-78
2022/10/17 10:43:38;;;;;;;29.00;18.73;;;16.20;99.90;;;;;;5094652;28;20044;-78
2022/10/17 10:46:26;;;;;;;34.28;19.70;;;16.20;99.90;;;;;;5093849;28;20484;-78
2022/10/17 10:49:02;;;;;;;39.60;21.08;;;16.20;99.90;;;;;;5106859;28;20131;-82
2022/10/17 10:51:46;;;;;;;35.92;19.83;;;16.20;99.90;;;;;;5073216;28;20052;-78
2022/10/17 10:54:20;;;;;;;35.03;19.05;;;16.20;99.90;;;;;;5094110;28;20039;-79
2022/10/17 10:56:50;;;;;;;51.30;22.70;;;16.20;99.90;;;;;;5065232;28;20118;-79
2022/10/17 10:59:40;;;;;;;56.20;24.23;;;16.20;99.90;;;;;;5094097;28;20063;-80
2022/10/17 11:02:17;;;;;;;45.42;24.13;;;16.20;99.90;;;;;;5117216;27;20386;-80
2022/10/17 11:04:58;;;;;;;42.85;22.08;;;16.20;99.90;;;;;;5093751;28;20043;-79
2022/10/17 11:07:29;;;;;;;33.38;19.42;;;16.20;99.90;;;;;;5085176;28;20051;-79
2022/10/17 11:10:13;;;;;;;58.28;26.30;;;16.30;99.90;;;;;;5093594;28;20177;-81
2022/10/17 11:12:42;;;;;;;41.30;22.10;;;16.30;99.90;;;;;;5111063;28;20573;-78
2022/10/17 11:15:21;;;;;;;38.08;22.23;;;16.40;99.90;;;;;;5093676;28;20474;-78
2022/10/17 11:17:49;;;;;;;51.63;25.42;;;16.40;99.90;;;;;;5093866;28;20043;-78
2022/10/17 11:21:03;;;;;;;41.63;24.50;;;16.50;99.90;;;;;;5110322;28;20070;-78
2022/10/17 11:23:37;;;;;;;40.40;22.45;;;16.60;99.90;;;;;;5088120;28;20105;-78
2022/10/17 11:26:07;;;;;;;35.85;21.75;;;16.60;99.90;;;;;;5093220;28;20036;-78
2022/10/17 11:28:33;;;;;;;38.75;22.23;;;16.60;99.90;;;;;;5093964;28;20517;-78
2022/10/17 11:31:02;;;;;;;39.28;21.70;;;16.50;99.90;;;;;;5093166;28;20126;-78
2022/10/17 11:33:51;;;;;;;56.25;26.15;;;16.50;99.90;;;;;;5093858;28;20048;-78
2022/10/17 11:36:20;;;;;;;45.78;25.45;;;16.50;99.90;;;;;;5109549;28;20083;-78
2022/10/17 11:38:51;;;;;;;41.10;22.35;;;16.40;99.90;;;;;;5076487;28;20071;-78
2022/10/17 11:41:34;;;;;;;47.38;24.65;;;16.50;99.90;;;;;;5092986;28;20509;-80
2022/10/17 11:44:17;;;;;;;56.45;25.90;;;16.40;99.90;;;;;;5076041;28;20050;-78
2022/10/17 11:46:48;;;;;;;58.75;27.83;;;16.40;99.90;;;;;;5093148;28;20056;-78
2022/10/17 11:49:29;;;;;;;33.10;21.70;;;16.40;99.90;;;;;;5110306;28;20124;-79
2022/10/17 11:52:28;;;;;;;28.30;18.33;;;16.40;99.90;;;;;;5093010;28;20110;-78
2022/10/17 11:55:18;;;;;;;37.53;21.05;;;16.50;99.90;;;;;;5110478;28;20032;-78
2022/10/17 11:57:55;;;;;;;35.25;20.38;;;16.50;99.90;;;;;;5110289;28;20075;-81
2022/10/17 12:00:29;;;;;;;29.10;19.90;;;16.50;99.90;;;;;;5080613;28;20046;-78
2022/10/17 12:03:11;;;;;;;33.33;21.13;;;16.50;99.90;;;;;;5110272;28;20044;-79
2022/10/17 12:05:57;;;;;;;27.15;18.60;;;16.60;99.90;;;;;;5099862;28;20131;-79
2022/10/17 12:08:28;;;;;;;26.58;18.33;;;16.70;99.90;;;;;;5079872;28;20131;-78
2022/10/17 12:11:26;;;;;;;30.48;18.52;;;16.70;99.90;;;;;;5092831;28;20327;-78
2022/10/17 12:13:55;;;;;;;26.20;17.95;;;16.80;99.90;;;;;;5076333;28;20082;-78
2022/10/17 12:16:20;;;;;;;28.13;19.25;;;16.80;99.90;;;;;;5092220;28;20050;-78
2022/10/17 12:19:01;;;;;;;26.73;18.75;;;16.90;99.90;;;;;;5092880;28;20263;-78
2022/10/17 12:21:28;;;;;;;28.95;18.35;;;17.10;99.90;;;;;;5109426;28;20044;-79
2022/10/17 12:23:54;;;;;;;24.92;18.02;;;17.20;99.90;;;;;;5092642;28;20092;-79
2022/10/17 12:26:28;;;;;;;25.98;18.88;;;17.30;99.90;;;;;;5109300;28;20162;-79
2022/10/17 12:28:55;;;;;;;31.35;18.85;;;17.40;99.90;;;;;;5092497;28;20378;-78
2022/10/17 12:31:26;;;;;;;29.70;19.60;;;17.40;99.90;;;;;;5109340;27;20094;-78
2022/10/17 12:34:03;;;;;;;21.88;16.10;;;17.40;99.90;;;;;;5092406;28;20228;-78
2022/10/17 12:36:28;;;;;;;24.52;16.10;;;17.40;99.90;;;;;;5092517;28;20687;-78
2022/10/17 12:39:00;;;;;;;25.73;17.58;;;17.30;99.90;;;;;;5092419;28;20046;-78
2022/10/17 12:41:38;;;;;;;18.45;14.80;;;17.20;99.90;;;;;;5092129;28;20203;-78
2022/10/17 12:44:13;;;;;;;25.80;16.75;;;17.20;99.90;;;;;;5109364;28;20044;-78
2022/10/17 12:47:09;;;;;;;16.90;13.43;;;17.10;99.90;;;;;;5092213;28;20048;-78
2022/10/17 12:49:35;;;;;;;35.90;20.60;;;17.00;99.90;;;;;;5092398;28;20382;-79
2022/10/17 12:52:08;;;;;;;25.77;16.95;;;16.90;99.90;;;;;;5092236;28;20055;-80